Fort Liard Airport
CYJF : rendu visible

Aérodrome :











RETROUVEZ-NOUS SUR...

 
LOGIN :

S'inscrire | Disclaimer

   EN    FR    IT 

 









Légende :    VFR   VFR Marginal   IFR   IFR Intensif   IFR Très Intensif
Visi : 
Plafond : 
>= 8 km
>= 3000ft
5 à 8 km
1000 à 3000 ft
1500m à 5 km
500 à 1000 ft
800 à 1500m
200 à 500 ft
< 800m
< 200 ft
Symboles :   Orages  Brouillard  Fortes neiges  Fortes précipitations  Vent > 20 kt






- Altitude de l'aérodrome : 708 ft
- Code IATA : YJF


CYJF - Fort Liard

DERNIER METAR :
  • 242200Z 04007KT 010V070 15SM BKN031 BKN230 M14/M17 A2972 RMK SC5CI3 SLP086

METARs EXPIRÉS :
  • 242100Z 07010KT 15SM FEW032 BKN090 BKN230 M14/M18 A2972 RMK SC2AC2CI3 CIG RAG SLP086
  • 242000Z VRB02KT 15SM FEW090 SCT230 BKN240 M16/M19 A2973 RMK AC1CI3CS2 SLP091

TAF N/A



MET'MAP, la Météo Aéronautique d'un coup d'oeil ! - Copyright ORBIFLY Décembre 2007 - Disclaimer

ORBIFLY MET'MAP TEAM :

Programmation & Développement : Alexandra Zaïnal
Sur une idée originale de : Baudouin d'Aumeries
Assistance à la programmation : Marc-Olivier Méhu
Soutien technique & logistique : Manuel Goepfert

Contact : metmap@orbifly.com




SOURCES & CREDITS :

   NOAA       Earth
Advisory